createdAt,value
2022-10-31T00:00:26.359Z,75.43
2022-10-31T00:01:02.171Z,75.67
2022-10-31T00:01:36.073Z,75.47
2022-10-31T00:02:10.870Z,75.58
2022-10-31T00:02:43.614Z,75.69
2022-10-31T00:03:15.844Z,75.24
2022-10-31T00:03:51.084Z,76.12
2022-10-31T00:04:23.251Z,75.91
2022-10-31T00:04:55.373Z,75.57
2022-10-31T00:05:30.092Z,75.70
2022-10-31T00:06:02.824Z,75.87
2022-10-31T00:06:34.934Z,75.19
2022-10-31T00:07:09.617Z,75.38
2022-10-31T00:07:41.681Z,75.45
2022-10-31T00:08:13.811Z,76.00
2022-10-31T00:08:48.576Z,75.53
2022-10-31T00:09:20.750Z,75.32
2022-10-31T00:09:52.832Z,75.62
2022-10-31T00:10:27.478Z,75.74
2022-10-31T00:10:59.635Z,75.89
2022-10-31T00:11:32.014Z,76.23
2022-10-31T00:12:07.032Z,76.19
2022-10-31T00:12:39.101Z,76.09
2022-10-31T00:13:12.377Z,76.09
2022-10-31T00:13:47.168Z,75.91
2022-10-31T00:14:19.258Z,75.91
2022-10-31T00:14:51.413Z,76.27
2022-10-31T00:15:26.097Z,76.14
2022-10-31T00:16:00.873Z,76.64
2022-10-31T00:16:33.202Z,76.66
2022-10-31T00:17:07.845Z,76.73
2022-10-31T00:17:39.981Z,76.17
2022-10-31T00:18:12.541Z,76.28
2022-10-31T00:18:47.540Z,76.52
2022-10-31T00:19:19.612Z,76.29
2022-10-31T00:19:51.683Z,76.76
2022-10-31T00:20:26.452Z,76.24
2022-10-31T00:21:01.640Z,76.56
2022-10-31T00:21:34.568Z,76.64
2022-10-31T00:22:09.220Z,76.82
2022-10-31T00:22:41.362Z,76.36
2022-10-31T00:23:13.554Z,76.59
2022-10-31T00:23:48.333Z,76.54
2022-10-31T00:24:20.477Z,76.35
2022-10-31T00:24:52.568Z,76.80
2022-10-31T00:25:24.724Z,76.59
2022-10-31T00:26:04.368Z,76.40
2022-10-31T00:26:36.481Z,76.49
2022-10-31T00:27:08.603Z,77.26
2022-10-31T00:27:43.294Z,76.95
2022-10-31T00:28:17.051Z,76.83
2022-10-31T00:28:49.663Z,76.96
2022-10-31T00:29:24.339Z,76.83
2022-10-31T00:29:56.519Z,76.89
2022-10-31T00:30:28.602Z,76.82
2022-10-31T00:31:08.576Z,77.08
2022-10-31T00:31:40.678Z,77.07
2022-10-31T00:32:12.751Z,76.71
2022-10-31T00:32:47.603Z,77.11
2022-10-31T00:33:19.731Z,77.06
2022-10-31T00:33:51.893Z,77.35
2022-10-31T00:34:26.849Z,76.82
2022-10-31T00:34:58.910Z,77.11
2022-10-31T00:35:31.401Z,76.90
2022-10-31T00:36:04.111Z,77.28
2022-10-31T00:36:38.808Z,77.38
2022-10-31T00:37:10.978Z,77.55
2022-10-31T00:37:43.075Z,76.89
2022-10-31T00:38:17.751Z,77.37
2022-10-31T00:38:50.477Z,77.48
2022-10-31T00:39:22.565Z,77.51
2022-10-31T00:39:57.245Z,77.52
2022-10-31T00:40:29.326Z,77.45
2022-10-31T00:41:01.443Z,77.43
2022-10-31T00:41:33.590Z,77.34
2022-10-31T00:42:08.462Z,77.68
2022-10-31T00:42:40.944Z,77.91
2022-10-31T00:43:13.104Z,77.63
2022-10-31T00:43:45.460Z,77.46
2022-10-31T00:44:20.347Z,77.57
2022-10-31T00:44:52.439Z,77.93
2022-10-31T00:45:25.912Z,77.82
2022-10-31T00:46:01.280Z,77.83
2022-10-31T00:46:35.954Z,77.81
2022-10-31T00:47:08.067Z,77.41
2022-10-31T00:47:42.854Z,77.45
2022-10-31T00:48:15.024Z,77.20
2022-10-31T00:48:47.098Z,77.38
2022-10-31T00:49:22.647Z,77.94
2022-10-31T00:49:55.200Z,77.59
2022-10-31T00:50:27.395Z,77.53
2022-10-31T00:51:02.734Z,77.64
2022-10-31T00:51:34.865Z,77.25
2022-10-31T00:52:07.016Z,77.80
2022-10-31T00:52:41.733Z,77.26
2022-10-31T00:53:14.047Z,77.44
2022-10-31T00:53:46.182Z,77.59
2022-10-31T00:54:20.881Z,77.30
2022-10-31T00:54:53.237Z,77.72
2022-10-31T00:55:26.276Z,78.08
2022-10-31T00:56:01.642Z,78.14
2022-10-31T00:56:34.161Z,77.77
2022-10-31T00:57:06.329Z,77.71
2022-10-31T00:57:41.094Z,78.03
2022-10-31T00:59:07.818Z,77.91
2022-10-31T00:59:41.061Z,78.31
2022-10-31T01:00:16.490Z,78.15
2022-10-31T01:00:56.001Z,78.10
2022-10-31T01:01:31.200Z,77.86
2022-10-31T01:02:06.309Z,78.02
2022-10-31T01:02:38.623Z,78.16
2022-10-31T01:03:14.116Z,78.32
2022-10-31T01:03:47.390Z,78.17
2022-10-31T01:04:19.569Z,78.62
2022-10-31T01:04:54.329Z,78.28
2022-10-31T01:05:26.866Z,78.15
2022-10-31T01:06:00.685Z,78.33
2022-10-31T01:06:35.386Z,78.25
2022-10-31T01:07:08.045Z,78.34
2022-10-31T01:07:41.541Z,78.34
2022-10-31T01:08:17.726Z,78.57
2022-10-31T01:08:49.934Z,78.51
2022-10-31T01:09:22.127Z,78.29
2022-10-31T01:09:56.819Z,78.88
2022-10-31T01:10:28.989Z,78.19
2022-10-31T01:11:07.929Z,78.65
2022-10-31T01:11:42.660Z,78.45
2022-10-31T01:12:15.298Z,78.91
2022-10-31T01:12:49.464Z,79.02
2022-10-31T01:14:16.195Z,79.28
2022-10-31T01:14:48.382Z,79.26
2022-10-31T01:15:24.061Z,79.09
2022-10-31T01:15:59.005Z,79.37
2022-10-31T01:16:31.448Z,79.02
2022-10-31T01:17:06.332Z,78.86
2022-10-31T01:17:41.664Z,78.64
2022-10-31T01:18:16.536Z,78.93
2022-10-31T01:18:48.651Z,78.94
2022-10-31T01:19:23.638Z,78.96
2022-10-31T01:19:55.840Z,78.99
2022-10-31T01:20:27.942Z,79.26
2022-10-31T01:21:02.217Z,79.06
2022-10-31T01:21:36.905Z,79.19
2022-10-31T01:22:09.020Z,78.84
2022-10-31T01:22:41.126Z,78.91
2022-10-31T01:23:15.789Z,78.86
2022-10-31T01:23:47.888Z,78.82
2022-10-31T01:24:19.991Z,79.08
2022-10-31T01:24:54.718Z,78.81
2022-10-31T01:25:26.916Z,78.53
2022-10-31T01:26:04.843Z,78.55
2022-10-31T01:26:40.765Z,79.09
2022-10-31T01:27:12.844Z,79.37
2022-10-31T01:27:44.956Z,79.00
2022-10-31T01:28:17.089Z,79.39
2022-10-31T01:28:54.582Z,78.88
2022-10-31T01:29:26.728Z,79.28
2022-10-31T01:29:58.834Z,78.94
2022-10-31T01:30:33.693Z,78.63
2022-10-31T01:31:08.150Z,78.99
2022-10-31T01:31:43.540Z,79.44
2022-10-31T01:32:18.370Z,78.91
2022-10-31T01:32:50.934Z,79.20
2022-10-31T01:33:23.166Z,79.14
2022-10-31T01:33:58.490Z,79.34
2022-10-31T01:34:30.734Z,78.80
2022-10-31T01:35:02.956Z,78.87
2022-10-31T01:35:37.669Z,79.10
2022-10-31T01:36:15.156Z,78.97
2022-10-31T01:36:52.484Z,78.59
2022-10-31T01:37:24.799Z,78.54
2022-10-31T01:37:56.940Z,78.94
2022-10-31T01:38:31.791Z,78.93
2022-10-31T01:39:06.239Z,79.07
2022-10-31T01:39:38.625Z,79.04
2022-10-31T01:40:14.237Z,78.69
2022-10-31T01:40:46.384Z,78.91
2022-10-31T01:41:21.197Z,78.63
2022-10-31T01:41:57.865Z,78.84
2022-10-31T01:42:30.121Z,78.75
2022-10-31T01:43:02.541Z,79.14
2022-10-31T01:43:47.728Z,78.64
2022-10-31T01:44:52.726Z,78.77
2022-10-31T01:45:27.557Z,79.22
2022-10-31T01:45:59.710Z,78.76
2022-10-31T01:46:37.293Z,78.84
2022-10-31T01:47:19.293Z,78.96
2022-10-31T01:47:54.064Z,78.54
2022-10-31T01:48:29.186Z,78.32
2022-10-31T01:49:08.221Z,78.73
2022-10-31T01:49:45.821Z,78.56
2022-10-31T01:50:29.575Z,78.62
2022-10-31T01:51:05.997Z,78.96
2022-10-31T01:51:42.849Z,78.63
2022-10-31T01:52:22.853Z,79.41
2022-10-31T01:52:58.824Z,79.17
2022-10-31T01:53:30.978Z,78.88
2022-10-31T01:54:07.866Z,79.19
2022-10-31T01:54:47.129Z,79.11
2022-10-31T01:55:26.458Z,78.93
2022-10-31T01:56:04.644Z,79.13
2022-10-31T01:56:42.431Z,79.26
2022-10-31T01:57:16.593Z,79.33
2022-10-31T01:57:55.737Z,79.18
2022-10-31T01:58:31.895Z,78.70
2022-10-31T01:59:07.450Z,78.94
2022-10-31T01:59:46.478Z,79.07
2022-10-31T02:00:21.345Z,79.28
2022-10-31T02:01:01.816Z,78.86
2022-10-31T02:01:41.464Z,79.04
2022-10-31T02:02:14.843Z,78.95
2022-10-31T02:02:48.967Z,78.54
2022-10-31T02:03:29.104Z,78.74
2022-10-31T02:04:02.524Z,79.26
2022-10-31T02:04:36.278Z,78.79
2022-10-31T02:05:18.134Z,79.09
2022-10-31T02:05:51.392Z,79.41
2022-10-31T02:06:37.526Z,79.13
2022-10-31T02:07:15.325Z,79.17
2022-10-31T02:07:53.062Z,79.57
2022-10-31T02:08:31.414Z,79.41
2022-10-31T02:09:05.754Z,79.36
2022-10-31T02:09:39.305Z,79.59
2022-10-31T02:10:11.498Z,79.39
2022-10-31T02:10:47.940Z,79.53
2022-10-31T02:11:20.198Z,78.95
2022-10-31T02:11:54.177Z,79.08
2022-10-31T02:12:29.577Z,79.24
2022-10-31T02:13:07.531Z,79.43
2022-10-31T02:13:43.013Z,79.31
2022-10-31T02:14:17.950Z,79.60
2022-10-31T02:14:51.070Z,79.12
2022-10-31T02:15:23.255Z,79.23
2022-10-31T02:15:59.670Z,79.35
2022-10-31T02:16:31.826Z,79.38
2022-10-31T02:17:04.714Z,79.22
2022-10-31T02:17:37.005Z,78.97
2022-10-31T02:18:12.900Z,79.12
2022-10-31T02:18:47.885Z,79.13
2022-10-31T02:19:28.931Z,79.28
2022-10-31T02:20:12.068Z,79.12
2022-10-31T02:20:54.105Z,79.10
2022-10-31T02:21:37.766Z,79.24
2022-10-31T02:22:16.785Z,79.35
2022-10-31T02:23:21.687Z,78.99
2022-10-31T02:24:41.551Z,79.29
2022-10-31T02:25:30.505Z,78.84
2022-10-31T02:26:40.664Z,79.14
2022-10-31T02:27:41.422Z,79.33
2022-10-31T02:28:32.599Z,78.67
2022-10-31T02:29:31.144Z,79.14
2022-10-31T02:30:13.625Z,79.41
2022-10-31T02:31:15.321Z,79.30
2022-10-31T02:31:58.639Z,79.17
2022-10-31T02:32:41.853Z,79.19
2022-10-31T02:33:27.498Z,79.54
2022-10-31T02:34:04.177Z,79.31
2022-10-31T02:34:39.152Z,78.89
2022-10-31T02:35:24.560Z,78.98
2022-10-31T02:36:06.074Z,79.12
2022-10-31T02:36:47.968Z,79.00
2022-10-31T02:37:27.608Z,78.97
2022-10-31T02:38:05.310Z,78.94
2022-10-31T02:38:53.936Z,78.70
2022-10-31T02:39:45.261Z,79.21
2022-10-31T02:40:25.340Z,78.96
2022-10-31T02:41:40.474Z,78.96
2022-10-31T02:42:24.558Z,78.69
2022-10-31T02:43:08.967Z,79.02
2022-10-31T02:43:49.802Z,78.76
2022-10-31T02:44:31.165Z,78.70
2022-10-31T02:45:13.622Z,78.77
2022-10-31T02:45:50.212Z,78.83
2022-10-31T02:46:29.728Z,78.92
2022-10-31T02:47:09.199Z,79.00
2022-10-31T02:47:43.868Z,78.97
2022-10-31T02:48:20.748Z,78.53
2022-10-31T02:48:59.425Z,78.89
2022-10-31T02:49:38.356Z,78.87
2022-10-31T02:50:15.809Z,78.74
2022-10-31T02:50:55.014Z,78.69
2022-10-31T02:51:28.003Z,78.58
2022-10-31T02:52:00.129Z,78.50
2022-10-31T02:52:36.875Z,78.11
2022-10-31T02:53:09.974Z,78.24
2022-10-31T02:53:42.260Z,77.77
2022-10-31T02:54:27.134Z,77.62
2022-10-31T02:54:59.698Z,77.37
2022-10-31T02:55:51.417Z,77.71
2022-10-31T02:56:26.097Z,77.77
2022-10-31T02:57:04.424Z,77.73
2022-10-31T02:57:37.885Z,77.65
2022-10-31T02:59:10.212Z,77.47
2022-10-31T02:59:51.124Z,77.01
2022-10-31T03:00:23.368Z,76.99
2022-10-31T03:01:20.163Z,77.25
2022-10-31T03:02:36.524Z,76.86
2022-10-31T03:03:13.936Z,76.80
2022-10-31T03:04:02.499Z,76.82
2022-10-31T03:05:06.024Z,77.12
2022-10-31T03:05:49.358Z,77.22
2022-10-31T03:06:31.857Z,77.01
2022-10-31T03:07:14.953Z,76.94
2022-10-31T03:07:58.431Z,76.75
2022-10-31T03:08:36.861Z,76.84
2022-10-31T03:09:20.979Z,76.83
2022-10-31T03:10:01.686Z,76.47
2022-10-31T03:10:43.979Z,76.96
2022-10-31T03:11:22.213Z,76.57
2022-10-31T03:11:59.654Z,76.63
2022-10-31T03:12:44.549Z,76.77
2022-10-31T03:13:27.735Z,76.86
2022-10-31T03:14:04.905Z,76.67
2022-10-31T03:14:47.266Z,76.11
2022-10-31T03:15:25.296Z,76.53
2022-10-31T03:16:11.147Z,75.88
2022-10-31T03:16:48.194Z,75.96
2022-10-31T03:17:29.797Z,75.70
2022-10-31T03:18:07.171Z,74.92
2022-10-31T03:18:41.992Z,75.26
2022-10-31T03:19:20.748Z,75.49
2022-10-31T03:19:57.648Z,75.34
2022-10-31T03:20:37.719Z,75.38
2022-10-31T03:21:17.274Z,75.78
2022-10-31T03:21:54.293Z,74.98
2022-10-31T03:22:31.807Z,75.09
2022-10-31T03:23:07.830Z,75.08
2022-10-31T03:23:44.018Z,73.90
2022-10-31T03:24:25.756Z,73.40
2022-10-31T03:24:59.230Z,73.21
2022-10-31T03:25:35.509Z,72.85
2022-10-31T03:26:10.777Z,71.68
2022-10-31T03:26:47.592Z,71.74
2022-10-31T03:27:27.198Z,69.94
2022-10-31T03:28:03.929Z,68.34
2022-10-31T03:28:45.161Z,67.59
2022-10-31T03:29:25.076Z,65.67
2022-10-31T03:30:01.872Z,66.59
2022-10-31T03:30:40.044Z,64.83
2022-10-31T03:31:20.002Z,62.84
2022-10-31T03:31:57.222Z,62.21
2022-10-31T03:32:36.062Z,62.00
2022-10-31T03:33:14.373Z,61.37
2022-10-31T03:33:48.325Z,62.09
2022-10-31T03:34:21.397Z,62.37
2022-10-31T03:35:00.312Z,61.85
2022-10-31T03:35:34.615Z,60.40
2022-10-31T03:36:11.917Z,60.96
2022-10-31T03:36:48.534Z,60.14
2022-10-31T03:37:23.387Z,60.58
2022-10-31T03:37:57.567Z,59.70
2022-10-31T03:38:33.380Z,59.94
2022-10-31T03:39:09.426Z,59.68
2022-10-31T03:39:46.538Z,60.07
2022-10-31T03:40:24.352Z,58.77
2022-10-31T03:40:59.609Z,59.46
2022-10-31T03:41:38.650Z,59.06
2022-10-31T03:42:15.263Z,60.36
2022-10-31T03:42:53.306Z,60.15
2022-10-31T03:43:34.190Z,60.20
2022-10-31T03:44:12.187Z,60.13
2022-10-31T03:44:49.645Z,59.64
2022-10-31T03:45:28.415Z,59.74
2022-10-31T03:46:00.893Z,59.74
2022-10-31T03:46:33.524Z,60.18
2022-10-31T03:47:06.187Z,60.58
2022-10-31T03:47:45.652Z,60.51
2022-10-31T03:48:20.193Z,60.38
2022-10-31T03:48:52.785Z,60.79
2022-10-31T03:49:29.271Z,60.48
2022-10-31T03:50:02.958Z,60.40
2022-10-31T03:50:42.907Z,59.71
2022-10-31T03:51:24.305Z,59.99
2022-10-31T03:52:00.937Z,60.04
2022-10-31T03:52:38.855Z,60.32
2022-10-31T03:53:20.498Z,60.28
2022-10-31T03:53:58.432Z,59.86
2022-10-31T03:54:38.776Z,59.67
2022-10-31T03:55:19.181Z,60.44
2022-10-31T03:55:57.998Z,60.03
2022-10-31T03:56:37.699Z,59.01
2022-10-31T03:57:17.876Z,60.19
2022-10-31T03:57:54.462Z,59.33
2022-10-31T03:58:33.646Z,59.34
2022-10-31T03:59:15.088Z,59.46
2022-10-31T03:59:53.148Z,57.99
2022-10-31T04:00:28.154Z,58.30
2022-10-31T04:01:02.143Z,57.98
2022-10-31T04:01:38.543Z,58.24
2022-10-31T04:02:18.823Z,58.01
2022-10-31T04:02:59.254Z,57.54
2022-10-31T04:03:37.125Z,56.92
2022-10-31T04:04:13.022Z,57.18
2022-10-31T04:04:47.628Z,57.60
2022-10-31T04:05:21.618Z,57.79
2022-10-31T04:06:00.776Z,57.96
2022-10-31T04:06:35.872Z,58.17
2022-10-31T04:07:09.320Z,58.13
2022-10-31T04:07:48.737Z,56.61
2022-10-31T04:08:26.889Z,58.05
2022-10-31T04:09:04.784Z,57.84
2022-10-31T04:09:42.521Z,56.53
2022-10-31T04:10:17.119Z,57.00
2022-10-31T04:10:51.166Z,57.14
2022-10-31T04:11:32.569Z,57.68
2022-10-31T04:12:26.615Z,57.78
2022-10-31T04:13:23.488Z,57.83
2022-10-31T04:14:06.022Z,57.78
2022-10-31T04:14:43.540Z,57.69
2022-10-31T04:15:18.524Z,57.33
2022-10-31T04:15:53.313Z,57.50
2022-10-31T04:16:28.769Z,57.29
2022-10-31T04:17:06.048Z,56.70
2022-10-31T04:17:46.312Z,56.92
2022-10-31T04:18:21.237Z,57.13
2022-10-31T04:18:56.870Z,56.26
2022-10-31T04:19:28.989Z,56.84
2022-10-31T04:20:01.396Z,56.56
2022-10-31T04:20:36.073Z,56.66
2022-10-31T04:21:12.276Z,56.39
2022-10-31T04:21:44.506Z,56.97
2022-10-31T04:22:16.797Z,56.80
2022-10-31T04:22:51.835Z,56.55
2022-10-31T04:23:27.148Z,57.10
2022-10-31T04:23:59.806Z,57.45
2022-10-31T04:24:37.871Z,55.35
2022-10-31T04:25:10.445Z,56.75
2022-10-31T04:25:43.944Z,56.65
2022-10-31T04:26:18.925Z,56.63
2022-10-31T04:26:52.301Z,56.35
2022-10-31T04:27:25.515Z,56.94
2022-10-31T04:28:01.129Z,56.84
2022-10-31T04:28:34.866Z,56.87
2022-10-31T04:29:07.776Z,56.59
2022-10-31T04:29:45.479Z,56.28
2022-10-31T04:30:20.611Z,55.86
2022-10-31T04:30:53.052Z,55.99
2022-10-31T04:31:27.739Z,56.48
2022-10-31T04:31:59.909Z,55.83
2022-10-31T04:32:33.084Z,55.98
2022-10-31T04:33:07.817Z,56.24
2022-10-31T04:33:43.318Z,56.11
2022-10-31T04:34:15.583Z,56.15
2022-10-31T04:34:50.351Z,56.11
2022-10-31T04:35:23.756Z,56.36
2022-10-31T04:35:55.945Z,56.05
2022-10-31T04:36:30.635Z,55.85
2022-10-31T04:37:03.754Z,56.07
2022-10-31T04:37:36.033Z,56.60
2022-10-31T04:38:11.511Z,56.55
2022-10-31T04:38:44.896Z,56.59
2022-10-31T04:39:33.023Z,56.21
2022-10-31T04:40:23.746Z,56.37
2022-10-31T04:40:58.381Z,57.04
2022-10-31T04:41:59.247Z,56.76
2022-10-31T04:42:31.646Z,56.83
2022-10-31T04:43:06.125Z,55.95
2022-10-31T04:43:41.163Z,56.79
2022-10-31T04:44:13.312Z,57.05
2022-10-31T04:44:45.440Z,56.92
2022-10-31T04:45:21.352Z,56.97
2022-10-31T04:45:56.779Z,57.21
2022-10-31T04:46:28.971Z,57.10
2022-10-31T04:47:05.425Z,56.91
2022-10-31T04:47:37.526Z,56.29
2022-10-31T04:48:09.620Z,57.11
2022-10-31T04:48:47.917Z,57.19
2022-10-31T04:49:20.076Z,57.19
2022-10-31T04:49:52.227Z,57.65
2022-10-31T04:50:26.972Z,57.84
2022-10-31T04:51:00.656Z,58.20
2022-10-31T04:51:33.040Z,58.15
2022-10-31T04:52:09.225Z,57.88
2022-10-31T04:52:42.060Z,57.45
2022-10-31T04:53:15.709Z,57.43
2022-10-31T04:54:09.420Z,57.83
2022-10-31T04:55:00.201Z,57.81
2022-10-31T04:55:57.501Z,57.71
2022-10-31T04:56:31.293Z,57.39
2022-10-31T04:57:06.232Z,56.86
2022-10-31T04:57:42.063Z,57.05
2022-10-31T04:59:12.585Z,57.81
2022-10-31T04:59:55.288Z,57.71
2022-10-31T05:00:29.453Z,57.68
2022-10-31T05:01:01.862Z,57.73
2022-10-31T05:01:36.814Z,58.15
2022-10-31T05:02:09.474Z,57.69
2022-10-31T05:03:00.762Z,57.65
2022-10-31T05:03:36.189Z,57.47
2022-10-31T05:04:11.167Z,57.49
2022-10-31T05:04:43.679Z,57.86
2022-10-31T05:05:20.270Z,57.62
2022-10-31T05:05:52.928Z,58.10
2022-10-31T05:06:25.339Z,58.20
2022-10-31T05:07:00.236Z,57.02
2022-10-31T05:07:32.910Z,57.81
2022-10-31T05:08:05.385Z,58.26
2022-10-31T05:08:40.944Z,58.13
2022-10-31T05:09:14.059Z,57.80
2022-10-31T05:09:46.162Z,58.30
2022-10-31T05:10:24.315Z,58.34
2022-10-31T05:11:04.178Z,58.74
2022-10-31T05:11:37.347Z,58.51
2022-10-31T05:12:27.945Z,58.81
2022-10-31T05:13:12.638Z,58.71
2022-10-31T05:14:05.750Z,59.02
2022-10-31T05:15:05.305Z,58.81
2022-10-31T05:15:58.600Z,59.35
2022-10-31T05:17:02.840Z,59.07
2022-10-31T05:17:59.072Z,59.33
2022-10-31T05:19:00.613Z,58.85
2022-10-31T05:19:56.586Z,59.56
2022-10-31T05:21:00.158Z,59.35
2022-10-31T05:21:42.940Z,59.16
2022-10-31T05:22:16.732Z,58.86
2022-10-31T05:22:50.948Z,58.89
2022-10-31T05:23:25.816Z,59.46
2022-10-31T05:23:57.904Z,58.66
2022-10-31T05:24:30.344Z,59.00
2022-10-31T05:25:05.029Z,58.97
2022-10-31T05:25:37.311Z,59.17
2022-10-31T05:26:10.099Z,58.92
2022-10-31T05:26:44.876Z,58.60
2022-10-31T05:27:18.408Z,59.07
2022-10-31T05:27:51.862Z,58.49
2022-10-31T05:28:26.669Z,58.66
2022-10-31T05:28:59.620Z,58.81
2022-10-31T05:29:34.580Z,58.68
2022-10-31T05:30:11.800Z,58.70
2022-10-31T05:30:43.930Z,58.27
2022-10-31T05:31:19.450Z,58.38
2022-10-31T05:31:54.359Z,58.26
2022-10-31T05:32:46.558Z,59.15
2022-10-31T05:33:44.014Z,58.63
2022-10-31T05:34:34.497Z,58.31
2022-10-31T05:35:36.261Z,58.62
2022-10-31T05:36:23.390Z,58.83
2022-10-31T05:37:21.340Z,59.27
2022-10-31T05:37:53.769Z,59.14
2022-10-31T05:38:25.956Z,58.33
2022-10-31T05:39:02.266Z,58.47
2022-10-31T05:39:40.437Z,58.37
2022-10-31T05:40:20.205Z,58.63
2022-10-31T05:40:58.722Z,58.60
2022-10-31T05:41:31.283Z,58.52
2022-10-31T05:42:16.593Z,59.19
2022-10-31T05:42:51.684Z,58.87
2022-10-31T05:43:23.775Z,58.63
2022-10-31T05:43:55.901Z,58.28
2022-10-31T05:44:36.054Z,59.00
2022-10-31T05:45:19.669Z,58.83
2022-10-31T05:45:58.351Z,58.90
2022-10-31T05:46:51.667Z,58.81
2022-10-31T05:47:42.852Z,58.72
2022-10-31T05:48:49.596Z,58.24
2022-10-31T05:49:40.087Z,58.98
2022-10-31T05:50:36.491Z,58.61
2022-10-31T05:51:15.111Z,59.07
2022-10-31T05:51:47.187Z,59.03
2022-10-31T05:52:22.365Z,58.90
2022-10-31T05:53:06.263Z,58.65
2022-10-31T05:53:45.985Z,59.00
2022-10-31T05:54:18.402Z,58.90
2022-10-31T05:54:51.756Z,59.27
2022-10-31T05:55:26.760Z,58.91
2022-10-31T05:56:10.055Z,58.85
2022-10-31T05:56:42.452Z,58.52
2022-10-31T05:57:17.910Z,58.64
2022-10-31T05:57:50.074Z,58.66
2022-10-31T05:58:25.043Z,59.10
2022-10-31T05:59:07.209Z,58.39
2022-10-31T05:59:39.364Z,58.79
2022-10-31T06:00:15.420Z,58.95
2022-10-31T06:00:56.145Z,59.00
2022-10-31T06:01:28.623Z,58.99
2022-10-31T06:02:05.771Z,59.08
2022-10-31T06:03:01.129Z,59.28
2022-10-31T06:03:48.968Z,58.98
2022-10-31T06:04:22.392Z,59.32
2022-10-31T06:04:54.710Z,58.86
2022-10-31T06:05:30.967Z,58.95
2022-10-31T06:06:06.131Z,58.91
2022-10-31T06:06:42.359Z,59.23
2022-10-31T06:07:17.073Z,59.29
2022-10-31T06:07:49.671Z,59.65
2022-10-31T06:08:22.037Z,59.78
2022-10-31T06:08:57.766Z,59.60
2022-10-31T06:09:31.425Z,60.31
2022-10-31T06:10:06.235Z,59.22
2022-10-31T06:10:41.174Z,58.84
2022-10-31T06:11:13.311Z,59.36
2022-10-31T06:12:17.656Z,59.49
2022-10-31T06:13:18.129Z,58.98
2022-10-31T06:13:53.907Z,59.58
2022-10-31T06:14:30.468Z,59.32
2022-10-31T06:15:06.300Z,59.74
2022-10-31T06:15:38.423Z,59.01
2022-10-31T06:16:13.164Z,59.52
2022-10-31T06:16:48.135Z,58.94
2022-10-31T06:17:40.493Z,58.95
2022-10-31T06:18:29.850Z,59.13
2022-10-31T06:19:02.114Z,58.76
2022-10-31T06:19:34.269Z,59.27
2022-10-31T06:20:10.838Z,59.55
2022-10-31T06:20:53.317Z,59.42
2022-10-31T06:21:30.788Z,59.36
2022-10-31T06:22:03.551Z,59.55
2022-10-31T06:22:35.788Z,59.37
2022-10-31T06:23:10.548Z,59.40
2022-10-31T06:23:43.756Z,58.93
2022-10-31T06:24:35.462Z,58.35
2022-10-31T06:25:28.330Z,58.82
2022-10-31T06:26:03.070Z,58.89
2022-10-31T06:26:35.342Z,58.50
2022-10-31T06:27:08.090Z,57.90
2022-10-31T06:27:40.336Z,57.88
2022-10-31T06:28:21.567Z,58.23
2022-10-31T06:29:14.498Z,58.53
2022-10-31T06:30:04.295Z,58.49
2022-10-31T06:30:37.866Z,58.01
2022-10-31T06:31:12.652Z,57.92
2022-10-31T06:31:44.816Z,57.97
2022-10-31T06:32:17.224Z,57.80
2022-10-31T06:32:53.268Z,58.37
2022-10-31T06:33:25.926Z,58.46
2022-10-31T06:34:06.844Z,58.60
2022-10-31T06:34:41.670Z,58.04
2022-10-31T06:35:14.812Z,58.01
2022-10-31T06:35:48.301Z,57.97
2022-10-31T06:36:24.422Z,58.13
2022-10-31T06:37:01.535Z,58.04
2022-10-31T06:37:34.915Z,58.48
2022-10-31T06:38:19.532Z,58.08
2022-10-31T06:38:52.371Z,57.97
2022-10-31T06:39:27.533Z,57.91
2022-10-31T06:40:02.720Z,57.73
2022-10-31T06:40:39.538Z,57.88
2022-10-31T06:41:25.521Z,58.35
2022-10-31T06:41:59.429Z,57.37
2022-10-31T06:42:32.806Z,57.63
2022-10-31T06:43:09.244Z,58.09
2022-10-31T06:43:41.436Z,57.76
2022-10-31T06:44:35.116Z,57.09
2022-10-31T06:45:26.302Z,57.67
2022-10-31T06:46:29.634Z,57.54
2022-10-31T06:47:14.028Z,57.88
2022-10-31T06:48:16.730Z,57.60
2022-10-31T06:49:09.496Z,57.60
2022-10-31T06:49:49.811Z,57.45
2022-10-31T06:50:25.784Z,57.20
2022-10-31T06:50:59.853Z,57.39
2022-10-31T06:51:35.178Z,57.00
2022-10-31T06:52:10.323Z,57.64
2022-10-31T06:52:42.428Z,56.29
2022-10-31T06:53:17.893Z,55.95
2022-10-31T06:53:50.049Z,56.08
2022-10-31T06:54:23.228Z,56.45
2022-10-31T06:54:58.129Z,55.22
2022-10-31T06:55:30.259Z,55.57
2022-10-31T06:56:02.504Z,55.42
2022-10-31T06:56:39.215Z,54.64
2022-10-31T06:57:11.674Z,55.35
2022-10-31T06:57:50.800Z,55.50
2022-10-31T06:58:25.493Z,55.54
2022-10-31T06:59:01.023Z,55.29
2022-10-31T06:59:55.637Z,55.27
2022-10-31T07:00:37.386Z,54.45
2022-10-31T07:01:15.489Z,55.03
2022-10-31T07:01:47.960Z,53.67
2022-10-31T07:02:20.225Z,53.80
2022-10-31T07:02:59.133Z,54.14
2022-10-31T07:03:31.377Z,53.50
2022-10-31T07:04:03.582Z,53.93
2022-10-31T07:04:42.163Z,53.34
2022-10-31T07:05:16.520Z,53.71
2022-10-31T07:05:48.735Z,53.40
2022-10-31T07:06:23.791Z,53.52
2022-10-31T07:06:55.939Z,53.21
2022-10-31T07:07:30.793Z,53.42
2022-10-31T07:08:08.189Z,52.88
2022-10-31T07:08:40.267Z,52.81
2022-10-31T07:09:12.918Z,52.50
2022-10-31T07:09:47.708Z,52.67
2022-10-31T07:10:22.708Z,52.52
2022-10-31T07:11:05.968Z,52.54
2022-10-31T07:11:39.024Z,52.73
2022-10-31T07:12:11.433Z,52.93
2022-10-31T07:12:51.210Z,53.23
2022-10-31T07:13:26.684Z,52.89
2022-10-31T07:14:09.560Z,53.27
2022-10-31T07:14:41.648Z,52.20
2022-10-31T07:15:13.923Z,52.04
2022-10-31T07:15:48.671Z,51.75
2022-10-31T07:16:20.961Z,52.13
2022-10-31T07:16:55.768Z,51.84
2022-10-31T07:17:34.581Z,50.32
2022-10-31T07:18:11.599Z,50.14
2022-10-31T07:18:43.853Z,50.16
2022-10-31T07:19:20.547Z,49.39
2022-10-31T07:19:52.718Z,49.17
2022-10-31T07:20:24.900Z,50.42
2022-10-31T07:20:59.909Z,50.98
2022-10-31T07:21:32.498Z,51.32
2022-10-31T07:22:04.715Z,50.93
2022-10-31T07:22:45.618Z,50.86
2022-10-31T07:23:20.622Z,50.99
2022-10-31T07:24:07.988Z,51.40
2022-10-31T07:24:49.187Z,49.68
2022-10-31T07:25:33.197Z,49.12
2022-10-31T07:26:14.096Z,50.66
2022-10-31T07:26:50.921Z,51.24
2022-10-31T07:27:23.136Z,49.75
2022-10-31T07:27:58.262Z,50.54
2022-10-31T07:28:30.780Z,50.42
2022-10-31T07:29:05.857Z,49.16
2022-10-31T07:29:37.911Z,50.13
2022-10-31T07:30:12.981Z,49.23
2022-10-31T07:30:52.988Z,49.75
2022-10-31T07:31:26.630Z,50.54
2022-10-31T07:32:03.854Z,50.17
2022-10-31T07:32:40.535Z,50.25
2022-10-31T07:33:13.543Z,49.81
2022-10-31T07:34:11.068Z,49.13
2022-10-31T07:35:01.772Z,48.84
2022-10-31T07:35:51.533Z,48.72
2022-10-31T07:36:27.867Z,48.77
2022-10-31T07:37:04.544Z,48.82
2022-10-31T07:37:39.520Z,48.32
2022-10-31T07:38:15.817Z,48.22
2022-10-31T07:38:52.023Z,49.11
2022-10-31T07:39:24.206Z,48.95
2022-10-31T07:39:56.885Z,49.96
2022-10-31T07:40:31.921Z,48.92
2022-10-31T07:41:04.103Z,48.56
2022-10-31T07:41:40.883Z,48.90
2022-10-31T07:42:15.083Z,49.11
2022-10-31T07:42:51.930Z,47.36
2022-10-31T07:44:05.319Z,48.96
2022-10-31T07:45:00.601Z,49.04
2022-10-31T07:45:54.880Z,49.24
2022-10-31T07:46:52.937Z,49.94
2022-10-31T07:47:52.165Z,50.27
2022-10-31T07:48:43.279Z,49.50
2022-10-31T07:49:36.224Z,48.28
2022-10-31T07:50:37.256Z,48.27
2022-10-31T07:51:46.466Z,48.48
2022-10-31T07:52:41.892Z,48.91
2022-10-31T07:53:48.627Z,49.64
2022-10-31T07:54:28.851Z,49.25
2022-10-31T07:55:01.019Z,49.55
2022-10-31T07:55:36.529Z,49.21
2022-10-31T07:56:08.612Z,48.35
2022-10-31T07:56:43.257Z,49.00
2022-10-31T07:57:16.082Z,49.08
2022-10-31T07:57:56.953Z,48.47
2022-10-31T07:58:31.774Z,47.84
2022-10-31T07:59:04.835Z,48.94
2022-10-31T07:59:36.991Z,49.48
2022-10-31T08:00:16.644Z,49.35
2022-10-31T08:00:49.032Z,49.14
2022-10-31T08:01:33.934Z,49.43
2022-10-31T08:02:35.744Z,49.98
2022-10-31T08:03:39.904Z,50.21
2022-10-31T08:04:30.367Z,50.13
2022-10-31T08:05:34.860Z,49.82
2022-10-31T08:06:45.129Z,49.50
2022-10-31T08:07:25.967Z,50.02
2022-10-31T08:08:07.495Z,49.42
2022-10-31T08:08:39.616Z,49.49
2022-10-31T08:09:18.936Z,49.42
2022-10-31T08:09:51.078Z,49.88
2022-10-31T08:10:32.492Z,49.68
2022-10-31T08:11:04.735Z,50.12